sensor_id;sensor_type;location;lat;lon;timestamp;temperature;humidity
30300;DHT22;17110;52.602;12.998;2023-02-22T00:01:18;7.60;99.90
30300;DHT22;17110;52.602;12.998;2023-02-22T00:03:52;7.70;99.90
30300;DHT22;17110;52.602;12.998;2023-02-22T00:06:21;7.60;99.90
30300;DHT22;17110;52.602;12.998;2023-02-22T00:08:49;7.50;99.90
30300;DHT22;17110;52.602;12.998;2023-02-22T00:11:16;7.30;99.90
30300;DHT22;17110;52.602;12.998;2023-02-22T00:13:42;7.20;99.90
30300;DHT22;17110;52.602;12.998;2023-02-22T00:16:13;7.30;99.90
30300;DHT22;17110;52.602;12.998;2023-02-22T00:18:39;7.20;99.90
30300;DHT22;17110;52.602;12.998;2023-02-22T00:21:05;7.20;99.90
30300;DHT22;17110;52.602;12.998;2023-02-22T00:23:35;7.50;99.90
30300;DHT22;17110;52.602;12.998;2023-02-22T00:26:05;7.30;99.90
30300;DHT22;17110;52.602;12.998;2023-02-22T00:28:35;7.10;99.90
30300;DHT22;17110;52.602;12.998;2023-02-22T00:31:02;7.30;99.90
30300;DHT22;17110;52.602;12.998;2023-02-22T00:33:29;7.30;99.90
30300;DHT22;17110;52.602;12.998;2023-02-22T00:35:55;7.30;99.90
30300;DHT22;17110;52.602;12.998;2023-02-22T00:38:21;7.00;99.90
30300;DHT22;17110;52.602;12.998;2023-02-22T00:40:47;7.00;99.90
30300;DHT22;17110;52.602;12.998;2023-02-22T00:43:13;7.20;99.90
30300;DHT22;17110;52.602;12.998;2023-02-22T00:45:39;7.30;99.90
30300;DHT22;17110;52.602;12.998;2023-02-22T00:48:06;7.40;99.90
30300;DHT22;17110;52.602;12.998;2023-02-22T00:50:33;7.40;99.90
30300;DHT22;17110;52.602;12.998;2023-02-22T00:53:00;7.30;99.90
30300;DHT22;17110;52.602;12.998;2023-02-22T00:55:31;7.40;99.90
30300;DHT22;17110;52.602;12.998;2023-02-22T00:57:57;7.50;99.90
30300;DHT22;17110;52.602;12.998;2023-02-22T01:00:38;7.50;99.90
30300;DHT22;17110;52.602;12.998;2023-02-22T01:03:07;7.50;99.90
30300;DHT22;17110;52.602;12.998;2023-02-22T01:05:33;7.60;99.90
30300;DHT22;17110;52.602;12.998;2023-02-22T01:08:01;7.60;99.90
30300;DHT22;17110;52.602;12.998;2023-02-22T01:10:28;7.20;99.90
30300;DHT22;17110;52.602;12.998;2023-02-22T01:12:55;7.10;99.90
30300;DHT22;17110;52.602;12.998;2023-02-22T01:15:23;7.20;99.90
30300;DHT22;17110;52.602;12.998;2023-02-22T01:17:51;7.30;99.90
30300;DHT22;17110;52.602;12.998;2023-02-22T01:20:19;7.20;99.90
30300;DHT22;17110;52.602;12.998;2023-02-22T01:22:46;7.20;99.90
30300;DHT22;17110;52.602;12.998;2023-02-22T01:25:17;7.30;99.90
30300;DHT22;17110;52.602;12.998;2023-02-22T01:27:43;7.30;99.90
30300;DHT22;17110;52.602;12.998;2023-02-22T01:30:12;7.20;99.90
30300;DHT22;17110;52.602;12.998;2023-02-22T01:32:39;7.10;99.90
30300;DHT22;17110;52.602;12.998;2023-02-22T01:35:11;7.10;99.90
30300;DHT22;17110;52.602;12.998;2023-02-22T01:37:38;7.20;99.90
30300;DHT22;17110;52.602;12.998;2023-02-22T01:40:07;7.30;99.90
30300;DHT22;17110;52.602;12.998;2023-02-22T01:42:33;7.30;99.90
30300;DHT22;17110;52.602;12.998;2023-02-22T01:48:23;7.30;99.90
30300;DHT22;17110;52.602;12.998;2023-02-22T01:53:34;7.20;99.90
30300;DHT22;17110;52.602;12.998;2023-02-22T01:56:02;6.90;99.90
30300;DHT22;17110;52.602;12.998;2023-02-22T01:58:29;6.70;99.90
30300;DHT22;17110;52.602;12.998;2023-02-22T02:00:56;6.80;99.90
30300;DHT22;17110;52.602;12.998;2023-02-22T02:03:25;6.70;99.90
30300;DHT22;17110;52.602;12.998;2023-02-22T02:05:55;6.60;99.90
30300;DHT22;17110;52.602;12.998;2023-02-22T02:08:35;6.40;99.90
30300;DHT22;17110;52.602;12.998;2023-02-22T02:11:04;6.30;99.90
30300;DHT22;17110;52.602;12.998;2023-02-22T02:13:30;6.10;99.90
30300;DHT22;17110;52.602;12.998;2023-02-22T02:15:56;6.00;99.90
30300;DHT22;17110;52.602;12.998;2023-02-22T02:18:22;5.90;99.90
30300;DHT22;17110;52.602;12.998;2023-02-22T02:21:17;5.90;99.90
30300;DHT22;17110;52.602;12.998;2023-02-22T02:23:55;5.70;99.90
30300;DHT22;17110;52.602;12.998;2023-02-22T02:26:40;5.80;99.90
30300;DHT22;17110;52.602;12.998;2023-02-22T02:40:28;5.80;99.90
30300;DHT22;17110;52.602;12.998;2023-02-22T02:43:28;5.80;99.90
30300;DHT22;17110;52.602;12.998;2023-02-22T02:46:05;5.60;99.90
30300;DHT22;17110;52.602;12.998;2023-02-22T02:48:33;5.70;99.90
30300;DHT22;17110;52.602;12.998;2023-02-22T02:51:01;5.90;99.90
30300;DHT22;17110;52.602;12.998;2023-02-22T02:53:39;5.90;99.90
30300;DHT22;17110;52.602;12.998;2023-02-22T02:56:06;5.90;99.90
30300;DHT22;17110;52.602;12.998;2023-02-22T02:58:32;5.80;99.90
30300;DHT22;17110;52.602;12.998;2023-02-22T03:01:00;5.80;99.90
30300;DHT22;17110;52.602;12.998;2023-02-22T03:03:50;5.80;99.90
30300;DHT22;17110;52.602;12.998;2023-02-22T03:09:30;5.90;99.90
30300;DHT22;17110;52.602;12.998;2023-02-22T03:20:26;5.90;99.90
30300;DHT22;17110;52.602;12.998;2023-02-22T03:23:09;5.70;99.90
30300;DHT22;17110;52.602;12.998;2023-02-22T03:25:57;5.60;99.90
30300;DHT22;17110;52.602;12.998;2023-02-22T03:28:25;5.70;99.90
30300;DHT22;17110;52.602;12.998;2023-02-22T03:31:14;5.80;99.90
30300;DHT22;17110;52.602;12.998;2023-02-22T03:34:00;5.90;99.90
30300;DHT22;17110;52.602;12.998;2023-02-22T03:36:32;6.00;99.90
30300;DHT22;17110;52.602;12.998;2023-02-22T03:39:05;5.90;99.90
30300;DHT22;17110;52.602;12.998;2023-02-22T03:41:35;5.70;99.90
30300;DHT22;17110;52.602;12.998;2023-02-22T03:44:08;5.50;99.90
30300;DHT22;17110;52.602;12.998;2023-02-22T03:46:37;5.40;99.90
30300;DHT22;17110;52.602;12.998;2023-02-22T03:49:13;5.70;99.90
30300;DHT22;17110;52.602;12.998;2023-02-22T03:51:42;5.70;99.90
30300;DHT22;17110;52.602;12.998;2023-02-22T03:54:08;5.70;99.90
30300;DHT22;17110;52.602;12.998;2023-02-22T03:56:53;5.70;99.90
30300;DHT22;17110;52.602;12.998;2023-02-22T03:59:20;5.40;99.90
30300;DHT22;17110;52.602;12.998;2023-02-22T04:01:49;5.40;99.90
30300;DHT22;17110;52.602;12.998;2023-02-22T04:04:15;5.60;99.90
30300;DHT22;17110;52.602;12.998;2023-02-22T04:06:43;5.60;99.90
30300;DHT22;17110;52.602;12.998;2023-02-22T04:09:09;5.70;99.90
30300;DHT22;17110;52.602;12.998;2023-02-22T04:11:36;5.80;99.90
30300;DHT22;17110;52.602;12.998;2023-02-22T04:14:02;5.80;99.90
30300;DHT22;17110;52.602;12.998;2023-02-22T04:16:27;5.60;99.90
30300;DHT22;17110;52.602;12.998;2023-02-22T04:18:53;5.40;99.90
30300;DHT22;17110;52.602;12.998;2023-02-22T04:21:19;5.40;99.90
30300;DHT22;17110;52.602;12.998;2023-02-22T04:23:45;5.60;99.90
30300;DHT22;17110;52.602;12.998;2023-02-22T04:26:10;5.70;99.90
30300;DHT22;17110;52.602;12.998;2023-02-22T04:28:36;5.70;99.90
30300;DHT22;17110;52.602;12.998;2023-02-22T04:31:02;5.70;99.90
30300;DHT22;17110;52.602;12.998;2023-02-22T04:33:27;5.80;99.90
30300;DHT22;17110;52.602;12.998;2023-02-22T04:35:53;5.80;99.90
30300;DHT22;17110;52.602;12.998;2023-02-22T04:38:19;5.60;99.90
30300;DHT22;17110;52.602;12.998;2023-02-22T04:40:44;5.70;99.90
30300;DHT22;17110;52.602;12.998;2023-02-22T04:43:10;5.80;99.90
30300;DHT22;17110;52.602;12.998;2023-02-22T04:45:36;5.80;99.90
30300;DHT22;17110;52.602;12.998;2023-02-22T04:48:02;5.60;99.90
30300;DHT22;17110;52.602;12.998;2023-02-22T04:50:27;5.70;99.90
30300;DHT22;17110;52.602;12.998;2023-02-22T04:52:53;5.70;99.90
30300;DHT22;17110;52.602;12.998;2023-02-22T04:55:19;5.90;99.90
30300;DHT22;17110;52.602;12.998;2023-02-22T04:57:45;5.90;99.90
30300;DHT22;17110;52.602;12.998;2023-02-22T05:00:16;5.90;99.90
30300;DHT22;17110;52.602;12.998;2023-02-22T05:02:41;5.70;99.90
30300;DHT22;17110;52.602;12.998;2023-02-22T05:05:07;5.40;99.90
30300;DHT22;17110;52.602;12.998;2023-02-22T05:07:33;5.50;99.90
30300;DHT22;17110;52.602;12.998;2023-02-22T05:09:59;5.70;99.90
30300;DHT22;17110;52.602;12.998;2023-02-22T05:12:27;5.70;99.90
30300;DHT22;17110;52.602;12.998;2023-02-22T05:14:53;5.70;99.90
30300;DHT22;17110;52.602;12.998;2023-02-22T05:17:18;5.80;99.90
30300;DHT22;17110;52.602;12.998;2023-02-22T05:19:44;5.90;99.90
30300;DHT22;17110;52.602;12.998;2023-02-22T05:22:10;6.00;99.90
30300;DHT22;17110;52.602;12.998;2023-02-22T05:24:36;6.00;99.90
30300;DHT22;17110;52.602;12.998;2023-02-22T05:27:02;6.10;99.90
30300;DHT22;17110;52.602;12.998;2023-02-22T05:29:28;6.00;99.90
30300;DHT22;17110;52.602;12.998;2023-02-22T05:31:54;5.80;99.90
30300;DHT22;17110;52.602;12.998;2023-02-22T05:34:19;5.90;99.90
30300;DHT22;17110;52.602;12.998;2023-02-22T05:36:45;6.10;99.90
30300;DHT22;17110;52.602;12.998;2023-02-22T05:39:11;6.20;99.90
30300;DHT22;17110;52.602;12.998;2023-02-22T05:41:37;6.10;99.90
30300;DHT22;17110;52.602;12.998;2023-02-22T05:44:02;6.10;99.90
30300;DHT22;17110;52.602;12.998;2023-02-22T05:46:28;6.30;99.90
30300;DHT22;17110;52.602;12.998;2023-02-22T05:48:54;6.40;99.90
30300;DHT22;17110;52.602;12.998;2023-02-22T05:51:20;6.50;99.90
30300;DHT22;17110;52.602;12.998;2023-02-22T05:53:45;6.10;99.90
30300;DHT22;17110;52.602;12.998;2023-02-22T05:56:11;5.90;99.90
30300;DHT22;17110;52.602;12.998;2023-02-22T05:58:37;5.90;99.90
30300;DHT22;17110;52.602;12.998;2023-02-22T06:01:02;5.80;99.90
30300;DHT22;17110;52.602;12.998;2023-02-22T06:03:28;5.80;99.90
30300;DHT22;17110;52.602;12.998;2023-02-22T06:05:54;5.90;99.90
30300;DHT22;17110;52.602;12.998;2023-02-22T06:08:20;6.00;99.90
30300;DHT22;17110;52.602;12.998;2023-02-22T06:10:45;6.10;99.90
30300;DHT22;17110;52.602;12.998;2023-02-22T06:13:11;6.20;99.90
30300;DHT22;17110;52.602;12.998;2023-02-22T06:15:36;6.30;99.90
30300;DHT22;17110;52.602;12.998;2023-02-22T06:18:02;6.40;99.90
30300;DHT22;17110;52.602;12.998;2023-02-22T06:20:29;6.40;99.90
30300;DHT22;17110;52.602;12.998;2023-02-22T06:22:56;6.40;99.90
30300;DHT22;17110;52.602;12.998;2023-02-22T06:25:26;6.10;99.90
30300;DHT22;17110;52.602;12.998;2023-02-22T06:27:52;5.90;99.90
30300;DHT22;17110;52.602;12.998;2023-02-22T06:30:21;5.90;99.90
30300;DHT22;17110;52.602;12.998;2023-02-22T06:32:47;6.00;99.90
30300;DHT22;17110;52.602;12.998;2023-02-22T06:35:14;6.30;99.90
30300;DHT22;17110;52.602;12.998;2023-02-22T06:37:39;6.20;99.90
30300;DHT22;17110;52.602;12.998;2023-02-22T06:40:06;6.20;99.90
30300;DHT22;17110;52.602;12.998;2023-02-22T06:42:32;6.30;99.90
30300;DHT22;17110;52.602;12.998;2023-02-22T06:44:57;6.50;99.90
30300;DHT22;17110;52.602;12.998;2023-02-22T06:47:23;6.30;99.90
30300;DHT22;17110;52.602;12.998;2023-02-22T06:49:56;6.00;99.90
30300;DHT22;17110;52.602;12.998;2023-02-22T06:52:23;5.80;99.90
30300;DHT22;17110;52.602;12.998;2023-02-22T06:54:49;5.90;99.90
30300;DHT22;17110;52.602;12.998;2023-02-22T06:57:15;6.10;99.90
30300;DHT22;17110;52.602;12.998;2023-02-22T06:59:41;6.30;99.90
30300;DHT22;17110;52.602;12.998;2023-02-22T07:02:08;6.30;99.90
30300;DHT22;17110;52.602;12.998;2023-02-22T07:04:33;6.40;99.90
30300;DHT22;17110;52.602;12.998;2023-02-22T07:06:59;6.60;99.90
30300;DHT22;17110;52.602;12.998;2023-02-22T07:09:25;6.70;99.90
30300;DHT22;17110;52.602;12.998;2023-02-22T07:11:50;6.70;99.90
30300;DHT22;17110;52.602;12.998;2023-02-22T07:14:16;6.60;99.90
30300;DHT22;17110;52.602;12.998;2023-02-22T07:16:42;6.80;99.90
30300;DHT22;17110;52.602;12.998;2023-02-22T07:19:08;6.80;99.90
30300;DHT22;17110;52.602;12.998;2023-02-22T07:21:33;6.80;99.90
30300;DHT22;17110;52.602;12.998;2023-02-22T07:23:59;6.80;99.90
30300;DHT22;17110;52.602;12.998;2023-02-22T07:26:26;6.90;99.90
30300;DHT22;17110;52.602;12.998;2023-02-22T07:28:52;6.90;99.90
30300;DHT22;17110;52.602;12.998;2023-02-22T07:31:17;7.20;99.90
30300;DHT22;17110;52.602;12.998;2023-02-22T07:33:45;7.20;99.90
30300;DHT22;17110;52.602;12.998;2023-02-22T07:36:11;7.20;99.90
30300;DHT22;17110;52.602;12.998;2023-02-22T07:38:40;7.20;99.90
30300;DHT22;17110;52.602;12.998;2023-02-22T07:41:08;7.40;99.90
30300;DHT22;17110;52.602;12.998;2023-02-22T07:43:34;7.50;99.90
30300;DHT22;17110;52.602;12.998;2023-02-22T07:46:01;7.50;99.90
30300;DHT22;17110;52.602;12.998;2023-02-22T07:48:29;7.60;99.90
30300;DHT22;17110;52.602;12.998;2023-02-22T07:50:56;7.70;99.90
30300;DHT22;17110;52.602;12.998;2023-02-22T07:53:28;7.90;99.90
30300;DHT22;17110;52.602;12.998;2023-02-22T07:55:59;7.80;99.90
30300;DHT22;17110;52.602;12.998;2023-02-22T07:58:27;7.90;99.90
30300;DHT22;17110;52.602;12.998;2023-02-22T08:00:53;7.90;99.90
30300;DHT22;17110;52.602;12.998;2023-02-22T08:03:20;8.00;99.90
30300;DHT22;17110;52.602;12.998;2023-02-22T08:05:56;8.00;99.90
30300;DHT22;17110;52.602;12.998;2023-02-22T08:08:23;7.90;99.90
30300;DHT22;17110;52.602;12.998;2023-02-22T08:10:49;7.90;99.90
30300;DHT22;17110;52.602;12.998;2023-02-22T08:13:16;7.90;99.90
30300;DHT22;17110;52.602;12.998;2023-02-22T08:15:42;8.10;99.90
30300;DHT22;17110;52.602;12.998;2023-02-22T08:18:11;8.10;99.90
30300;DHT22;17110;52.602;12.998;2023-02-22T08:20:40;8.10;99.90
30300;DHT22;17110;52.602;12.998;2023-02-22T08:23:07;8.20;99.90
30300;DHT22;17110;52.602;12.998;2023-02-22T08:25:33;8.30;99.90
30300;DHT22;17110;52.602;12.998;2023-02-22T08:28:10;8.10;99.90
30300;DHT22;17110;52.602;12.998;2023-02-22T08:30:37;8.00;99.90
30300;DHT22;17110;52.602;12.998;2023-02-22T08:33:03;8.10;99.90
30300;DHT22;17110;52.602;12.998;2023-02-22T08:35:32;8.20;99.90
30300;DHT22;17110;52.602;12.998;2023-02-22T08:38:03;8.30;99.90
30300;DHT22;17110;52.602;12.998;2023-02-22T08:40:33;8.40;99.90
30300;DHT22;17110;52.602;12.998;2023-02-22T08:43:00;8.50;99.90
30300;DHT22;17110;52.602;12.998;2023-02-22T08:45:27;8.40;99.90
30300;DHT22;17110;52.602;12.998;2023-02-22T08:47:53;8.60;99.90
30300;DHT22;17110;52.602;12.998;2023-02-22T08:52:46;8.80;99.90
30300;DHT22;17110;52.602;12.998;2023-02-22T08:55:12;8.90;99.90
30300;DHT22;17110;52.602;12.998;2023-02-22T08:57:37;9.10;99.90
30300;DHT22;17110;52.602;12.998;2023-02-22T09:00:04;9.20;99.90
30300;DHT22;17110;52.602;12.998;2023-02-22T09:02:30;9.10;99.90
30300;DHT22;17110;52.602;12.998;2023-02-22T09:04:56;9.30;99.90
30300;DHT22;17110;52.602;12.998;2023-02-22T09:07:21;9.50;99.90
30300;DHT22;17110;52.602;12.998;2023-02-22T09:09:47;9.50;99.90
30300;DHT22;17110;52.602;12.998;2023-02-22T09:12:13;9.30;99.90
30300;DHT22;17110;52.602;12.998;2023-02-22T09:14:39;9.50;99.90
30300;DHT22;17110;52.602;12.998;2023-02-22T09:17:07;9.60;99.90
30300;DHT22;17110;52.602;12.998;2023-02-22T09:19:34;9.60;99.90
30300;DHT22;17110;52.602;12.998;2023-02-22T09:22:00;9.80;99.90
30300;DHT22;17110;52.602;12.998;2023-02-22T09:24:26;9.90;99.90
30300;DHT22;17110;52.602;12.998;2023-02-22T09:26:52;9.90;99.90
30300;DHT22;17110;52.602;12.998;2023-02-22T09:29:20;10.00;99.90
30300;DHT22;17110;52.602;12.998;2023-02-22T09:31:52;10.00;99.90
30300;DHT22;17110;52.602;12.998;2023-02-22T09:34:19;10.10;99.90
30300;DHT22;17110;52.602;12.998;2023-02-22T09:36:52;10.00;99.90
30300;DHT22;17110;52.602;12.998;2023-02-22T09:39:17;9.80;99.90
30300;DHT22;17110;52.602;12.998;2023-02-22T09:42:06;10.00;99.90
30300;DHT22;17110;52.602;12.998;2023-02-22T09:44:47;9.90;99.90
30300;DHT22;17110;52.602;12.998;2023-02-22T09:47:21;10.00;99.90
30300;DHT22;17110;52.602;12.998;2023-02-22T09:50:07;10.10;99.90
30300;DHT22;17110;52.602;12.998;2023-02-22T09:52:57;10.10;99.90
30300;DHT22;17110;52.602;12.998;2023-02-22T09:58:09;10.30;99.90
30300;DHT22;17110;52.602;12.998;2023-02-22T10:00:40;10.10;99.90
30300;DHT22;17110;52.602;12.998;2023-02-22T10:03:38;10.00;99.90
30300;DHT22;17110;52.602;12.998;2023-02-22T10:06:13;10.00;99.90
30300;DHT22;17110;52.602;12.998;2023-02-22T10:08:41;10.20;99.90
30300;DHT22;17110;52.602;12.998;2023-02-22T10:17:10;10.00;99.90
30300;DHT22;17110;52.602;12.998;2023-02-22T10:20:13;10.30;99.90
30300;DHT22;17110;52.602;12.998;2023-02-22T10:25:27;10.70;99.90
30300;DHT22;17110;52.602;12.998;2023-02-22T10:28:01;10.80;99.90
30300;DHT22;17110;52.602;12.998;2023-02-22T10:30:34;10.40;99.90
30300;DHT22;17110;52.602;12.998;2023-02-22T10:35:45;10.30;99.90
30300;DHT22;17110;52.602;12.998;2023-02-22T10:38:38;10.40;99.90
30300;DHT22;17110;52.602;12.998;2023-02-22T10:43:36;10.70;99.90
30300;DHT22;17110;52.602;12.998;2023-02-22T10:46:05;10.60;99.90
30300;DHT22;17110;52.602;12.998;2023-02-22T10:48:36;10.80;99.90
30300;DHT22;17110;52.602;12.998;2023-02-22T10:51:05;10.60;99.90
30300;DHT22;17110;52.602;12.998;2023-02-22T10:53:34;10.50;99.90
30300;DHT22;17110;52.602;12.998;2023-02-22T11:04:14;10.60;99.90
30300;DHT22;17110;52.602;12.998;2023-02-22T11:06:43;10.60;99.90
30300;DHT22;17110;52.602;12.998;2023-02-22T11:09:18;10.30;99.90
30300;DHT22;17110;52.602;12.998;2023-02-22T11:11:48;10.20;99.90
30300;DHT22;17110;52.602;12.998;2023-02-22T11:14:28;10.20;99.90
30300;DHT22;17110;52.602;12.998;2023-02-22T11:16:55;10.20;99.90
30300;DHT22;17110;52.602;12.998;2023-02-22T11:19:27;10.40;99.90
30300;DHT22;17110;52.602;12.998;2023-02-22T11:22:09;10.30;99.90
30300;DHT22;17110;52.602;12.998;2023-02-22T11:24:48;10.00;99.90
30300;DHT22;17110;52.602;12.998;2023-02-22T11:27:38;10.20;99.90
30300;DHT22;17110;52.602;12.998;2023-02-22T11:30:29;10.50;99.90
30300;DHT22;17110;52.602;12.998;2023-02-22T11:33:02;10.50;99.90
30300;DHT22;17110;52.602;12.998;2023-02-22T11:35:38;10.60;99.90
30300;DHT22;17110;52.602;12.998;2023-02-22T11:38:14;10.20;99.90
30300;DHT22;17110;52.602;12.998;2023-02-22T11:40:41;10.20;99.90
30300;DHT22;17110;52.602;12.998;2023-02-22T11:43:16;10.30;99.90
30300;DHT22;17110;52.602;12.998;2023-02-22T11:46:08;10.40;99.90
30300;DHT22;17110;52.602;12.998;2023-02-22T11:48:38;10.60;99.90
30300;DHT22;17110;52.602;12.998;2023-02-22T11:51:11;10.60;99.90
30300;DHT22;17110;52.602;12.998;2023-02-22T11:56:45;10.90;99.90
30300;DHT22;17110;52.602;12.998;2023-02-22T11:59:34;10.60;99.90
30300;DHT22;17110;52.602;12.998;2023-02-22T12:04:42;10.70;99.90
30300;DHT22;17110;52.602;12.998;2023-02-22T12:13:24;10.90;99.90
30300;DHT22;17110;52.602;12.998;2023-02-22T12:18:30;10.40;99.90
30300;DHT22;17110;52.602;12.998;2023-02-22T12:21:02;10.40;99.90
30300;DHT22;17110;52.602;12.998;2023-02-22T12:23:44;10.40;99.90
30300;DHT22;17110;52.602;12.998;2023-02-22T12:26:29;10.60;99.90
30300;DHT22;17110;52.602;12.998;2023-02-22T12:29:17;10.70;99.90
30300;DHT22;17110;52.602;12.998;2023-02-22T12:31:56;10.70;99.90
30300;DHT22;17110;52.602;12.998;2023-02-22T12:34:32;10.70;99.90
30300;DHT22;17110;52.602;12.998;2023-02-22T12:37:12;10.80;99.90
30300;DHT22;17110;52.602;12.998;2023-02-22T12:40:34;10.70;99.90
30300;DHT22;17110;52.602;12.998;2023-02-22T12:45:42;11.10;99.90
30300;DHT22;17110;52.602;12.998;2023-02-22T12:50:44;10.80;99.90
30300;DHT22;17110;52.602;12.998;2023-02-22T12:55:42;10.70;99.90
30300;DHT22;17110;52.602;12.998;2023-02-22T12:58:29;10.80;99.90
30300;DHT22;17110;52.602;12.998;2023-02-22T13:01:04;10.80;99.90
30300;DHT22;17110;52.602;12.998;2023-02-22T13:03:37;10.80;99.90
30300;DHT22;17110;52.602;12.998;2023-02-22T13:09:18;10.90;99.90
30300;DHT22;17110;52.602;12.998;2023-02-22T13:14:38;10.80;99.90
30300;DHT22;17110;52.602;12.998;2023-02-22T13:17:38;10.90;99.90
30300;DHT22;17110;52.602;12.998;2023-02-22T13:20:40;11.10;99.90
30300;DHT22;17110;52.602;12.998;2023-02-22T13:25:49;10.90;99.90
30300;DHT22;17110;52.602;12.998;2023-02-22T13:28:40;10.80;99.90
30300;DHT22;17110;52.602;12.998;2023-02-22T13:31:27;10.70;99.90
30300;DHT22;17110;52.602;12.998;2023-02-22T13:34:09;10.80;99.90
30300;DHT22;17110;52.602;12.998;2023-02-22T13:45:19;11.20;99.90
30300;DHT22;17110;52.602;12.998;2023-02-22T13:53:48;11.20;99.90
30300;DHT22;17110;52.602;12.998;2023-02-22T13:56:15;11.10;99.90
30300;DHT22;17110;52.602;12.998;2023-02-22T13:59:19;10.90;99.90
30300;DHT22;17110;52.602;12.998;2023-02-22T14:17:44;10.90;99.90
30300;DHT22;17110;52.602;12.998;2023-02-22T14:22:43;11.00;99.90
30300;DHT22;17110;52.602;12.998;2023-02-22T14:28:06;10.70;99.90
30300;DHT22;17110;52.602;12.998;2023-02-22T14:30:35;10.80;99.90
30300;DHT22;17110;52.602;12.998;2023-02-22T14:33:02;10.80;99.90
30300;DHT22;17110;52.602;12.998;2023-02-22T14:35:37;10.80;99.90
30300;DHT22;17110;52.602;12.998;2023-02-22T14:38:13;10.70;99.90
30300;DHT22;17110;52.602;12.998;2023-02-22T14:40:44;10.80;99.90
30300;DHT22;17110;52.602;12.998;2023-02-22T14:43:16;10.90;99.90
30300;DHT22;17110;52.602;12.998;2023-02-22T14:45:57;10.80;99.90
30300;DHT22;17110;52.602;12.998;2023-02-22T14:48:39;10.80;99.90
30300;DHT22;17110;52.602;12.998;2023-02-22T14:51:29;10.70;99.90
30300;DHT22;17110;52.602;12.998;2023-02-22T14:54:09;10.60;99.90
30300;DHT22;17110;52.602;12.998;2023-02-22T14:56:50;10.50;99.90
30300;DHT22;17110;52.602;12.998;2023-02-22T14:59:26;10.50;99.90
30300;DHT22;17110;52.602;12.998;2023-02-22T15:02:12;10.70;99.90
30300;DHT22;17110;52.602;12.998;2023-02-22T15:04:53;10.60;99.90
30300;DHT22;17110;52.602;12.998;2023-02-22T15:07:30;10.60;99.90
30300;DHT22;17110;52.602;12.998;2023-02-22T15:10:19;10.60;99.90
30300;DHT22;17110;52.602;12.998;2023-02-22T15:13:00;10.50;99.90
30300;DHT22;17110;52.602;12.998;2023-02-22T15:15:41;10.60;99.90
30300;DHT22;17110;52.602;12.998;2023-02-22T15:24:45;10.50;99.90
30300;DHT22;17110;52.602;12.998;2023-02-22T15:27:23;10.40;99.90
30300;DHT22;17110;52.602;12.998;2023-02-22T15:30:00;10.20;99.90
30300;DHT22;17110;52.602;12.998;2023-02-22T15:35:40;10.10;99.90
30300;DHT22;17110;52.602;12.998;2023-02-22T15:42:04;10.10;99.90
30300;DHT22;17110;52.602;12.998;2023-02-22T15:48:09;9.90;99.90
30300;DHT22;17110;52.602;12.998;2023-02-22T15:50:50;9.90;99.90
30300;DHT22;17110;52.602;12.998;2023-02-22T16:13:37;9.40;99.90
30300;DHT22;17110;52.602;12.998;2023-02-22T16:22:38;9.30;99.90
30300;DHT22;17110;52.602;12.998;2023-02-22T16:31:45;9.00;99.90
30300;DHT22;17110;52.602;12.998;2023-02-22T16:37:30;8.80;99.90
30300;DHT22;17110;52.602;12.998;2023-02-22T16:43:13;8.80;99.90
30300;DHT22;17110;52.602;12.998;2023-02-22T16:46:28;8.80;99.90
30300;DHT22;17110;52.602;12.998;2023-02-22T16:56:19;8.70;99.90
30300;DHT22;17110;52.602;12.998;2023-02-22T16:59:09;8.60;99.90
30300;DHT22;17110;52.602;12.998;2023-02-22T17:05:11;8.50;99.90
30300;DHT22;17110;52.602;12.998;2023-02-22T17:08:06;8.50;99.90
30300;DHT22;17110;52.602;12.998;2023-02-22T17:10:52;8.50;99.90
30300;DHT22;17110;52.602;12.998;2023-02-22T17:13:26;8.50;99.90
30300;DHT22;17110;52.602;12.998;2023-02-22T17:16:00;8.40;99.90
30300;DHT22;17110;52.602;12.998;2023-02-22T17:18:56;8.30;99.90
30300;DHT22;17110;52.602;12.998;2023-02-22T17:25:20;8.30;99.90
30300;DHT22;17110;52.602;12.998;2023-02-22T17:31:56;8.20;99.90
30300;DHT22;17110;52.602;12.998;2023-02-22T17:34:27;8.10;99.90
30300;DHT22;17110;52.602;12.998;2023-02-22T17:37:33;8.00;99.90
30300;DHT22;17110;52.602;12.998;2023-02-22T17:40:19;8.00;99.90
30300;DHT22;17110;52.602;12.998;2023-02-22T17:42:59;8.00;99.90
30300;DHT22;17110;52.602;12.998;2023-02-22T17:45:49;8.10;99.90
30300;DHT22;17110;52.602;12.998;2023-02-22T17:48:21;8.10;99.90
30300;DHT22;17110;52.602;12.998;2023-02-22T17:50:56;8.00;99.90
30300;DHT22;17110;52.602;12.998;2023-02-22T17:53:24;7.90;99.90
30300;DHT22;17110;52.602;12.998;2023-02-22T17:55:52;7.80;99.90
30300;DHT22;17110;52.602;12.998;2023-02-22T17:59:22;7.80;99.90
30300;DHT22;17110;52.602;12.998;2023-02-22T18:02:15;7.90;99.90
30300;DHT22;17110;52.602;12.998;2023-02-22T18:04:54;7.80;99.90
30300;DHT22;17110;52.602;12.998;2023-02-22T18:07:53;7.90;99.90
30300;DHT22;17110;52.602;12.998;2023-02-22T18:10:56;7.80;99.90
30300;DHT22;17110;52.602;12.998;2023-02-22T18:16:38;7.90;99.90
30300;DHT22;17110;52.602;12.998;2023-02-22T18:19:15;7.90;99.90
30300;DHT22;17110;52.602;12.998;2023-02-22T18:22:04;7.90;99.90
30300;DHT22;17110;52.602;12.998;2023-02-22T18:24:35;7.80;99.90
30300;DHT22;17110;52.602;12.998;2023-02-22T18:27:14;7.80;99.90
30300;DHT22;17110;52.602;12.998;2023-02-22T18:29:40;7.70;99.90
30300;DHT22;17110;52.602;12.998;2023-02-22T18:32:16;7.70;99.90
30300;DHT22;17110;52.602;12.998;2023-02-22T18:34:46;7.70;99.90
30300;DHT22;17110;52.602;12.998;2023-02-22T18:37:18;7.70;99.90
30300;DHT22;17110;52.602;12.998;2023-02-22T18:39:55;7.70;99.90
30300;DHT22;17110;52.602;12.998;2023-02-22T18:42:29;7.70;99.90
30300;DHT22;17110;52.602;12.998;2023-02-22T18:45:18;7.60;99.90
30300;DHT22;17110;52.602;12.998;2023-02-22T18:48:02;7.70;99.90
30300;DHT22;17110;52.602;12.998;2023-02-22T18:50:51;7.60;99.90
30300;DHT22;17110;52.602;12.998;2023-02-22T18:53:38;7.50;99.90
30300;DHT22;17110;52.602;12.998;2023-02-22T18:56:12;7.50;99.90
30300;DHT22;17110;52.602;12.998;2023-02-22T18:58:39;7.50;99.90
30300;DHT22;17110;52.602;12.998;2023-02-22T19:01:19;7.60;99.90
30300;DHT22;17110;52.602;12.998;2023-02-22T19:03:48;7.50;99.90
30300;DHT22;17110;52.602;12.998;2023-02-22T19:06:19;7.60;99.90
30300;DHT22;17110;52.602;12.998;2023-02-22T19:08:51;7.50;99.90
30300;DHT22;17110;52.602;12.998;2023-02-22T19:11:29;7.50;99.90
30300;DHT22;17110;52.602;12.998;2023-02-22T19:14:06;7.60;99.90
30300;DHT22;17110;52.602;12.998;2023-02-22T19:16:34;7.50;99.90
30300;DHT22;17110;52.602;12.998;2023-02-22T19:19:02;7.60;99.90
30300;DHT22;17110;52.602;12.998;2023-02-22T19:21:29;7.50;99.90